Charles Town, WV (25414)

07:12 PM EST die 01o February, anno 2015 (GMT -0500)
Tuscawilla Hills | Change Station
CLOSE
Current Station
Personal Weather Stations
Location: Charles Town, WV
Elevation: 572 ft
Nearby Weather Stations
Active Advisory: Winter Weather Advisory Active Notice: Public Information Statement

Elev 572 ft 39.29 °N, 77.90 °W | Updated 4 seconds ago

Aequaliter Nubila
Aequaliter Nubila
36.3 °F
Feels Like 36 °F
N
0.0
Ventus Variabilis Ventus from Eurus
Gusts 1.0 mph

Hodie
High -- | Low -- °F
--% Chance of Precip.
Yesterday
High -- | Low -- °F
Precip. -- in
7:18 AM 5:31 PM
Waxing Gibbous, 96% visible
Pressio 29.98 in
Visibilitas 10.0 milia passuum
Clouds Aequaliter Nubila 4400 ft
Frigus Venti 36 °F
Frigus in quo Ros apparet 22 °F
Umor 55%
Rainfall 0.00 in
Snow Depth Not available.
UV 0 out of 12
Pollen .30 out of 12
Air Quality Not available.
Flu Activity Not available.
METAR KMRB 012353Z AUTO 10005KT 10SM OVC044 03/M08 A2996 RMK AO2 SLP150 60000 T00331078 10050 20033 58023 TSNO

More Conditions Fewer Conditions

Pressio 29.98 in
Visibilitas 10.0 milia passuum
Clouds Aequaliter Nubila 4400 ft
Frigus Venti 36 °F
Frigus in quo Ros apparet 22 °F
Umor 55%
Rainfall 0.00 in
Snow Depth Not available.
UV 0 out of 12
Pollen .30 out of 12
Air Quality Not available.
Flu Activity Not available.
METAR KMRB 012353Z AUTO 10005KT 10SM OVC044 03/M08 A2996 RMK AO2 SLP150 60000 T00331078 10050 20033 58023 TSNO

More Conditions Fewer Conditions

10-Day Weather Forecast

Almanac

Astronomy

Feb. 01, 2015 Rise Set
Actual Time
Civil Twilight
Nautical Twilight
Astronomical Twilight
Moon
Length Of Visible Light
Length of Day
Tomorrow will be .
, % of the Moon is Illuminated

Today's Extremes

State Highs State Lows

Community

WunderPhotos

Upload Photos

1,792,619 photos uploaded!

WunderBlogs® & News

Nearby

Air Quality

  Air Quality AQ Index Pollutant
Not available.

Snow Depth

Station Depth Elevation

Earthquake Activity

City Distance Mag. Time & Date
Minimum magnitude displayed is 2.5.

Coastal Water Temperatures

Locus Calor

Nearby Weather Stations